sensor_id;sensor_type;location;lat;lon;timestamp;P1;durP1;ratioP1;P2;durP2;ratioP2
39896;SDS011;25567;48.276;14.242;2023-03-21T00:00:42;22.70;;;10.48;;
39896;SDS011;25567;48.276;14.242;2023-03-21T00:03:09;22.00;;;10.25;;
39896;SDS011;25567;48.276;14.242;2023-03-21T00:05:40;31.02;;;10.88;;
39896;SDS011;25567;48.276;14.242;2023-03-21T00:08:08;15.00;;;9.43;;
39896;SDS011;25567;48.276;14.242;2023-03-21T00:10:35;15.73;;;9.10;;
39896;SDS011;25567;48.276;14.242;2023-03-21T00:13:21;22.25;;;9.88;;
39896;SDS011;25567;48.276;14.242;2023-03-21T00:15:48;18.45;;;9.82;;
39896;SDS011;25567;48.276;14.242;2023-03-21T00:18:36;16.83;;;9.45;;
39896;SDS011;25567;48.276;14.242;2023-03-21T00:21:07;16.30;;;9.13;;
39896;SDS011;25567;48.276;14.242;2023-03-21T00:23:57;19.00;;;8.98;;
39896;SDS011;25567;48.276;14.242;2023-03-21T00:26:25;17.35;;;8.80;;
39896;SDS011;25567;48.276;14.242;2023-03-21T00:28:52;22.17;;;10.50;;
39896;SDS011;25567;48.276;14.242;2023-03-21T00:31:19;21.75;;;10.80;;
39896;SDS011;25567;48.276;14.242;2023-03-21T00:33:46;23.45;;;10.25;;
39896;SDS011;25567;48.276;14.242;2023-03-21T00:36:13;22.90;;;10.30;;
39896;SDS011;25567;48.276;14.242;2023-03-21T00:38:41;21.58;;;10.25;;
39896;SDS011;25567;48.276;14.242;2023-03-21T00:41:09;27.02;;;11.02;;
39896;SDS011;25567;48.276;14.242;2023-03-21T00:43:59;16.63;;;9.88;;
39896;SDS011;25567;48.276;14.242;2023-03-21T00:46:26;20.08;;;10.80;;
39896;SDS011;25567;48.276;14.242;2023-03-21T00:49:07;20.20;;;9.95;;
39896;SDS011;25567;48.276;14.242;2023-03-21T00:51:34;24.83;;;10.20;;
39896;SDS011;25567;48.276;14.242;2023-03-21T00:54:01;17.35;;;10.40;;
39896;SDS011;25567;48.276;14.242;2023-03-21T00:56:30;17.70;;;9.80;;
39896;SDS011;25567;48.276;14.242;2023-03-21T00:58:57;18.35;;;10.00;;
39896;SDS011;25567;48.276;14.242;2023-03-21T01:01:24;21.80;;;9.32;;
39896;SDS011;25567;48.276;14.242;2023-03-21T01:03:51;18.95;;;9.18;;
39896;SDS011;25567;48.276;14.242;2023-03-21T01:06:28;14.93;;;9.05;;
39896;SDS011;25567;48.276;14.242;2023-03-21T01:08:56;14.32;;;8.25;;
39896;SDS011;25567;48.276;14.242;2023-03-21T01:11:24;20.20;;;9.77;;
39896;SDS011;25567;48.276;14.242;2023-03-21T01:13:53;17.30;;;9.27;;
39896;SDS011;25567;48.276;14.242;2023-03-21T01:16:36;17.02;;;9.35;;
39896;SDS011;25567;48.276;14.242;2023-03-21T01:19:06;17.30;;;7.95;;
39896;SDS011;25567;48.276;14.242;2023-03-21T01:21:50;18.00;;;9.27;;
39896;SDS011;25567;48.276;14.242;2023-03-21T01:24:17;15.80;;;9.20;;
39896;SDS011;25567;48.276;14.242;2023-03-21T01:26:44;15.85;;;9.27;;
39896;SDS011;25567;48.276;14.242;2023-03-21T01:29:10;19.23;;;10.43;;
39896;SDS011;25567;48.276;14.242;2023-03-21T01:31:37;15.77;;;9.18;;
39896;SDS011;25567;48.276;14.242;2023-03-21T01:34:04;16.65;;;9.15;;
39896;SDS011;25567;48.276;14.242;2023-03-21T01:36:31;21.17;;;9.75;;
39896;SDS011;25567;48.276;14.242;2023-03-21T01:38:58;15.45;;;9.13;;
39896;SDS011;25567;48.276;14.242;2023-03-21T01:44:09;19.15;;;10.13;;
39896;SDS011;25567;48.276;14.242;2023-03-21T01:49:34;18.52;;;9.93;;
39896;SDS011;25567;48.276;14.242;2023-03-21T01:52:08;19.80;;;9.85;;
39896;SDS011;25567;48.276;14.242;2023-03-21T01:54:46;19.27;;;8.93;;
39896;SDS011;25567;48.276;14.242;2023-03-21T01:57:15;17.75;;;9.60;;
39896;SDS011;25567;48.276;14.242;2023-03-21T01:59:50;17.25;;;9.75;;
39896;SDS011;25567;48.276;14.242;2023-03-21T02:02:21;15.75;;;9.07;;
39896;SDS011;25567;48.276;14.242;2023-03-21T02:04:52;15.98;;;9.82;;
39896;SDS011;25567;48.276;14.242;2023-03-21T02:07:25;16.77;;;9.23;;
39896;SDS011;25567;48.276;14.242;2023-03-21T02:09:54;16.20;;;9.52;;
39896;SDS011;25567;48.276;14.242;2023-03-21T02:12:24;18.13;;;9.20;;
39896;SDS011;25567;48.276;14.242;2023-03-21T02:14:51;17.73;;;9.90;;
39896;SDS011;25567;48.276;14.242;2023-03-21T02:35:53;17.80;;;9.77;;
39896;SDS011;25567;48.276;14.242;2023-03-21T02:38:40;16.88;;;10.20;;
39896;SDS011;25567;48.276;14.242;2023-03-21T02:41:30;18.52;;;9.65;;
39896;SDS011;25567;48.276;14.242;2023-03-21T02:44:15;21.65;;;10.02;;
39896;SDS011;25567;48.276;14.242;2023-03-21T02:52:10;23.20;;;9.82;;
39896;SDS011;25567;48.276;14.242;2023-03-21T02:54:57;20.48;;;10.65;;
39896;SDS011;25567;48.276;14.242;2023-03-21T02:57:26;18.13;;;10.20;;
39896;SDS011;25567;48.276;14.242;2023-03-21T03:00:08;16.52;;;10.15;;
39896;SDS011;25567;48.276;14.242;2023-03-21T03:02:42;18.63;;;9.32;;
39896;SDS011;25567;48.276;14.242;2023-03-21T03:05:13;15.20;;;9.02;;
39896;SDS011;25567;48.276;14.242;2023-03-21T03:07:58;15.93;;;9.35;;
39896;SDS011;25567;48.276;14.242;2023-03-21T03:10:38;22.33;;;10.30;;
39896;SDS011;25567;48.276;14.242;2023-03-21T03:16:04;19.27;;;10.75;;
39896;SDS011;25567;48.276;14.242;2023-03-21T03:18:52;15.25;;;9.38;;
39896;SDS011;25567;48.276;14.242;2023-03-21T03:21:26;19.80;;;11.23;;
39896;SDS011;25567;48.276;14.242;2023-03-21T03:24:01;17.58;;;10.32;;
39896;SDS011;25567;48.276;14.242;2023-03-21T03:29:34;28.40;;;11.05;;
39896;SDS011;25567;48.276;14.242;2023-03-21T03:34:52;19.52;;;10.48;;
39896;SDS011;25567;48.276;14.242;2023-03-21T03:37:23;22.83;;;11.77;;
39896;SDS011;25567;48.276;14.242;2023-03-21T03:39:57;20.88;;;11.27;;
39896;SDS011;25567;48.276;14.242;2023-03-21T03:42:33;20.45;;;10.88;;
39896;SDS011;25567;48.276;14.242;2023-03-21T03:45:02;18.10;;;10.13;;
39896;SDS011;25567;48.276;14.242;2023-03-21T03:50:23;21.05;;;10.98;;
39896;SDS011;25567;48.276;14.242;2023-03-21T03:52:57;24.73;;;11.30;;
39896;SDS011;25567;48.276;14.242;2023-03-21T03:55:44;19.42;;;10.82;;
39896;SDS011;25567;48.276;14.242;2023-03-21T03:58:12;21.05;;;11.30;;
39896;SDS011;25567;48.276;14.242;2023-03-21T04:00:50;20.48;;;11.05;;
39896;SDS011;25567;48.276;14.242;2023-03-21T04:03:17;19.63;;;11.10;;
39896;SDS011;25567;48.276;14.242;2023-03-21T04:05:44;19.33;;;10.82;;
39896;SDS011;25567;48.276;14.242;2023-03-21T04:08:12;20.63;;;10.82;;
39896;SDS011;25567;48.276;14.242;2023-03-21T04:10:39;18.90;;;10.73;;
39896;SDS011;25567;48.276;14.242;2023-03-21T04:13:07;17.58;;;10.68;;
39896;SDS011;25567;48.276;14.242;2023-03-21T04:15:34;24.38;;;11.32;;
39896;SDS011;25567;48.276;14.242;2023-03-21T04:18:01;23.63;;;10.88;;
39896;SDS011;25567;48.276;14.242;2023-03-21T04:20:28;21.05;;;9.30;;
39896;SDS011;25567;48.276;14.242;2023-03-21T04:23:02;19.40;;;9.88;;
39896;SDS011;25567;48.276;14.242;2023-03-21T04:25:31;20.17;;;10.70;;
39896;SDS011;25567;48.276;14.242;2023-03-21T04:28:00;19.15;;;10.13;;
39896;SDS011;25567;48.276;14.242;2023-03-21T04:30:27;18.35;;;10.32;;
39896;SDS011;25567;48.276;14.242;2023-03-21T04:32:53;20.42;;;11.35;;
39896;SDS011;25567;48.276;14.242;2023-03-21T04:35:22;20.33;;;10.73;;
39896;SDS011;25567;48.276;14.242;2023-03-21T04:37:50;23.73;;;10.45;;
39896;SDS011;25567;48.276;14.242;2023-03-21T04:40:16;19.17;;;10.55;;
39896;SDS011;25567;48.276;14.242;2023-03-21T04:42:45;20.98;;;11.55;;
39896;SDS011;25567;48.276;14.242;2023-03-21T04:45:13;26.35;;;11.02;;
39896;SDS011;25567;48.276;14.242;2023-03-21T04:47:41;20.80;;;11.57;;
39896;SDS011;25567;48.276;14.242;2023-03-21T04:50:09;25.08;;;11.73;;
39896;SDS011;25567;48.276;14.242;2023-03-21T04:52:36;23.40;;;11.70;;
39896;SDS011;25567;48.276;14.242;2023-03-21T04:55:03;22.92;;;12.15;;
39896;SDS011;25567;48.276;14.242;2023-03-21T04:57:31;25.67;;;12.90;;
39896;SDS011;25567;48.276;14.242;2023-03-21T04:59:57;22.88;;;12.52;;
39896;SDS011;25567;48.276;14.242;2023-03-21T05:02:24;30.00;;;13.15;;
39896;SDS011;25567;48.276;14.242;2023-03-21T05:04:51;22.65;;;11.82;;
39896;SDS011;25567;48.276;14.242;2023-03-21T05:07:17;20.10;;;9.73;;
39896;SDS011;25567;48.276;14.242;2023-03-21T05:09:44;18.50;;;10.13;;
39896;SDS011;25567;48.276;14.242;2023-03-21T05:12:11;19.38;;;11.57;;
39896;SDS011;25567;48.276;14.242;2023-03-21T05:14:38;21.40;;;11.75;;
39896;SDS011;25567;48.276;14.242;2023-03-21T05:17:04;21.98;;;11.40;;
39896;SDS011;25567;48.276;14.242;2023-03-21T05:19:31;22.70;;;11.18;;
39896;SDS011;25567;48.276;14.242;2023-03-21T05:22:07;24.65;;;12.18;;
39896;SDS011;25567;48.276;14.242;2023-03-21T05:24:35;19.25;;;10.90;;
39896;SDS011;25567;48.276;14.242;2023-03-21T05:27:04;22.13;;;11.70;;
39896;SDS011;25567;48.276;14.242;2023-03-21T05:29:31;20.05;;;10.07;;
39896;SDS011;25567;48.276;14.242;2023-03-21T05:31:59;23.30;;;10.35;;
39896;SDS011;25567;48.276;14.242;2023-03-21T05:34:27;22.35;;;11.00;;
39896;SDS011;25567;48.276;14.242;2023-03-21T05:36:54;19.33;;;10.57;;
39896;SDS011;25567;48.276;14.242;2023-03-21T05:39:20;25.85;;;11.35;;
39896;SDS011;25567;48.276;14.242;2023-03-21T05:41:47;19.88;;;11.45;;
39896;SDS011;25567;48.276;14.242;2023-03-21T05:44:14;21.75;;;12.88;;
39896;SDS011;25567;48.276;14.242;2023-03-21T05:46:41;22.27;;;12.10;;
39896;SDS011;25567;48.276;14.242;2023-03-21T05:49:09;27.05;;;14.05;;
39896;SDS011;25567;48.276;14.242;2023-03-21T05:51:36;32.58;;;14.43;;
39896;SDS011;25567;48.276;14.242;2023-03-21T05:54:03;35.45;;;15.75;;
39896;SDS011;25567;48.276;14.242;2023-03-21T05:56:30;27.25;;;14.88;;
39896;SDS011;25567;48.276;14.242;2023-03-21T05:58:57;36.55;;;15.95;;
39896;SDS011;25567;48.276;14.242;2023-03-21T06:01:23;32.20;;;16.33;;
39896;SDS011;25567;48.276;14.242;2023-03-21T06:03:50;108.75;;;20.35;;
39896;SDS011;25567;48.276;14.242;2023-03-21T06:06:17;132.82;;;20.40;;
39896;SDS011;25567;48.276;14.242;2023-03-21T06:08:44;50.95;;;19.10;;
39896;SDS011;25567;48.276;14.242;2023-03-21T06:11:15;41.05;;;18.52;;
39896;SDS011;25567;48.276;14.242;2023-03-21T06:13:48;42.75;;;19.92;;
39896;SDS011;25567;48.276;14.242;2023-03-21T06:16:15;56.08;;;20.90;;
39896;SDS011;25567;48.276;14.242;2023-03-21T06:18:42;38.55;;;19.33;;
39896;SDS011;25567;48.276;14.242;2023-03-21T06:21:09;36.58;;;19.80;;
39896;SDS011;25567;48.276;14.242;2023-03-21T06:23:35;40.83;;;20.48;;
39896;SDS011;25567;48.276;14.242;2023-03-21T06:26:02;38.85;;;19.95;;
39896;SDS011;25567;48.276;14.242;2023-03-21T06:28:29;38.65;;;19.35;;
39896;SDS011;25567;48.276;14.242;2023-03-21T06:30:57;39.15;;;20.15;;
39896;SDS011;25567;48.276;14.242;2023-03-21T06:33:24;41.75;;;20.25;;
39896;SDS011;25567;48.276;14.242;2023-03-21T06:35:51;39.58;;;18.80;;
39896;SDS011;25567;48.276;14.242;2023-03-21T06:38:19;38.22;;;19.25;;
39896;SDS011;25567;48.276;14.242;2023-03-21T06:40:46;40.90;;;20.40;;
39896;SDS011;25567;48.276;14.242;2023-03-21T06:43:13;31.98;;;18.15;;
39896;SDS011;25567;48.276;14.242;2023-03-21T06:45:42;37.28;;;20.10;;
39896;SDS011;25567;48.276;14.242;2023-03-21T06:48:09;36.97;;;19.25;;
39896;SDS011;25567;48.276;14.242;2023-03-21T06:50:36;37.03;;;19.55;;
39896;SDS011;25567;48.276;14.242;2023-03-21T06:53:03;39.60;;;18.92;;
39896;SDS011;25567;48.276;14.242;2023-03-21T06:55:30;33.15;;;18.65;;
39896;SDS011;25567;48.276;14.242;2023-03-21T06:57:56;38.20;;;19.45;;
39896;SDS011;25567;48.276;14.242;2023-03-21T07:00:23;34.80;;;18.77;;
39896;SDS011;25567;48.276;14.242;2023-03-21T07:02:50;37.38;;;19.50;;
39896;SDS011;25567;48.276;14.242;2023-03-21T07:05:17;42.25;;;19.58;;
39896;SDS011;25567;48.276;14.242;2023-03-21T07:07:43;36.58;;;19.98;;
39896;SDS011;25567;48.276;14.242;2023-03-21T07:10:10;39.60;;;19.60;;
39896;SDS011;25567;48.276;14.242;2023-03-21T07:12:37;39.05;;;20.63;;
39896;SDS011;25567;48.276;14.242;2023-03-21T07:15:05;38.33;;;20.45;;
39896;SDS011;25567;48.276;14.242;2023-03-21T07:17:32;36.28;;;19.77;;
39896;SDS011;25567;48.276;14.242;2023-03-21T07:19:59;33.42;;;18.60;;
39896;SDS011;25567;48.276;14.242;2023-03-21T07:22:26;34.45;;;18.92;;
39896;SDS011;25567;48.276;14.242;2023-03-21T07:24:52;32.45;;;18.58;;
39896;SDS011;25567;48.276;14.242;2023-03-21T07:27:30;39.63;;;19.35;;
39896;SDS011;25567;48.276;14.242;2023-03-21T07:29:57;36.08;;;19.75;;
39896;SDS011;25567;48.276;14.242;2023-03-21T07:32:24;38.17;;;19.98;;
39896;SDS011;25567;48.276;14.242;2023-03-21T07:34:55;29.55;;;17.80;;
39896;SDS011;25567;48.276;14.242;2023-03-21T07:37:22;30.40;;;16.75;;
39896;SDS011;25567;48.276;14.242;2023-03-21T07:39:49;25.45;;;14.70;;
39896;SDS011;25567;48.276;14.242;2023-03-21T07:42:16;27.50;;;15.07;;
39896;SDS011;25567;48.276;14.242;2023-03-21T07:44:43;26.13;;;14.45;;
39896;SDS011;25567;48.276;14.242;2023-03-21T07:47:10;25.15;;;14.43;;
39896;SDS011;25567;48.276;14.242;2023-03-21T07:49:37;22.30;;;12.73;;
39896;SDS011;25567;48.276;14.242;2023-03-21T07:52:04;19.73;;;12.73;;
39896;SDS011;25567;48.276;14.242;2023-03-21T07:54:32;23.17;;;12.65;;
39896;SDS011;25567;48.276;14.242;2023-03-21T07:56:59;22.35;;;12.75;;
39896;SDS011;25567;48.276;14.242;2023-03-21T07:59:25;24.70;;;12.00;;
39896;SDS011;25567;48.276;14.242;2023-03-21T08:01:52;25.05;;;13.48;;
39896;SDS011;25567;48.276;14.242;2023-03-21T08:04:19;24.70;;;12.82;;
39896;SDS011;25567;48.276;14.242;2023-03-21T08:06:45;21.35;;;12.13;;
39896;SDS011;25567;48.276;14.242;2023-03-21T08:09:12;18.20;;;11.18;;
39896;SDS011;25567;48.276;14.242;2023-03-21T08:11:39;19.73;;;10.48;;
39896;SDS011;25567;48.276;14.242;2023-03-21T08:14:06;20.15;;;10.40;;
39896;SDS011;25567;48.276;14.242;2023-03-21T08:16:33;17.38;;;10.52;;
39896;SDS011;25567;48.276;14.242;2023-03-21T08:19:00;17.38;;;9.55;;
39896;SDS011;25567;48.276;14.242;2023-03-21T08:21:26;14.77;;;8.63;;
39896;SDS011;25567;48.276;14.242;2023-03-21T08:23:53;17.48;;;10.00;;
39896;SDS011;25567;48.276;14.242;2023-03-21T08:26:20;17.02;;;9.30;;
39896;SDS011;25567;48.276;14.242;2023-03-21T08:28:50;21.23;;;9.73;;
39896;SDS011;25567;48.276;14.242;2023-03-21T08:31:17;14.68;;;9.30;;
39896;SDS011;25567;48.276;14.242;2023-03-21T08:33:46;19.55;;;9.02;;
39896;SDS011;25567;48.276;14.242;2023-03-21T08:36:19;19.42;;;9.35;;
39896;SDS011;25567;48.276;14.242;2023-03-21T08:38:47;18.15;;;9.40;;
39896;SDS011;25567;48.276;14.242;2023-03-21T08:41:14;18.05;;;9.60;;
39896;SDS011;25567;48.276;14.242;2023-03-21T08:43:41;16.75;;;9.55;;
39896;SDS011;25567;48.276;14.242;2023-03-21T08:46:07;14.10;;;8.77;;
39896;SDS011;25567;48.276;14.242;2023-03-21T08:48:34;13.35;;;7.97;;
39896;SDS011;25567;48.276;14.242;2023-03-21T08:51:04;14.05;;;8.13;;
39896;SDS011;25567;48.276;14.242;2023-03-21T08:53:31;14.13;;;7.80;;
39896;SDS011;25567;48.276;14.242;2023-03-21T08:55:58;14.50;;;8.43;;
39896;SDS011;25567;48.276;14.242;2023-03-21T08:58:25;14.30;;;7.65;;
39896;SDS011;25567;48.276;14.242;2023-03-21T09:00:52;12.80;;;7.50;;
39896;SDS011;25567;48.276;14.242;2023-03-21T09:03:19;14.35;;;7.78;;
39896;SDS011;25567;48.276;14.242;2023-03-21T09:05:45;14.48;;;8.13;;
39896;SDS011;25567;48.276;14.242;2023-03-21T09:08:12;15.52;;;7.70;;
39896;SDS011;25567;48.276;14.242;2023-03-21T09:10:38;18.00;;;8.50;;
39896;SDS011;25567;48.276;14.242;2023-03-21T09:13:05;15.60;;;8.80;;
39896;SDS011;25567;48.276;14.242;2023-03-21T09:15:32;13.93;;;8.63;;
39896;SDS011;25567;48.276;14.242;2023-03-21T09:18:00;16.25;;;8.25;;
39896;SDS011;25567;48.276;14.242;2023-03-21T09:20:39;13.95;;;8.20;;
39896;SDS011;25567;48.276;14.242;2023-03-21T09:23:11;12.93;;;8.27;;
39896;SDS011;25567;48.276;14.242;2023-03-21T09:25:40;15.43;;;8.55;;
39896;SDS011;25567;48.276;14.242;2023-03-21T09:28:07;16.23;;;8.98;;
39896;SDS011;25567;48.276;14.242;2023-03-21T09:30:35;16.00;;;8.98;;
39896;SDS011;25567;48.276;14.242;2023-03-21T09:33:03;17.27;;;7.97;;
39896;SDS011;25567;48.276;14.242;2023-03-21T09:35:34;16.90;;;9.05;;
39896;SDS011;25567;48.276;14.242;2023-03-21T09:38:01;16.40;;;9.00;;
39896;SDS011;25567;48.276;14.242;2023-03-21T09:40:40;15.80;;;8.75;;
39896;SDS011;25567;48.276;14.242;2023-03-21T09:46:11;16.48;;;8.95;;
39896;SDS011;25567;48.276;14.242;2023-03-21T09:48:49;18.40;;;9.02;;
39896;SDS011;25567;48.276;14.242;2023-03-21T09:51:30;17.83;;;10.15;;
39896;SDS011;25567;48.276;14.242;2023-03-21T09:54:04;17.05;;;9.40;;
39896;SDS011;25567;48.276;14.242;2023-03-21T09:56:37;15.65;;;9.45;;
39896;SDS011;25567;48.276;14.242;2023-03-21T09:59:09;16.88;;;8.80;;
39896;SDS011;25567;48.276;14.242;2023-03-21T10:01:46;14.50;;;8.15;;
39896;SDS011;25567;48.276;14.242;2023-03-21T10:04:14;17.75;;;8.98;;
39896;SDS011;25567;48.276;14.242;2023-03-21T10:06:46;13.80;;;7.63;;
39896;SDS011;25567;48.276;14.242;2023-03-21T10:09:20;18.27;;;8.88;;
39896;SDS011;25567;48.276;14.242;2023-03-21T10:12:06;12.27;;;7.32;;
39896;SDS011;25567;48.276;14.242;2023-03-21T10:14:41;14.60;;;8.30;;
39896;SDS011;25567;48.276;14.242;2023-03-21T10:17:20;15.77;;;8.60;;
39896;SDS011;25567;48.276;14.242;2023-03-21T10:22:43;16.30;;;7.47;;
39896;SDS011;25567;48.276;14.242;2023-03-21T10:25:14;16.98;;;7.38;;
39896;SDS011;25567;48.276;14.242;2023-03-21T10:27:44;12.70;;;7.40;;
39896;SDS011;25567;48.276;14.242;2023-03-21T10:31:17;12.25;;;7.63;;
39896;SDS011;25567;48.276;14.242;2023-03-21T10:33:10;16.75;;;7.47;;
39896;SDS011;25567;48.276;14.242;2023-03-21T10:35:42;13.98;;;7.90;;
39896;SDS011;25567;48.276;14.242;2023-03-21T10:38:14;13.60;;;7.65;;
39896;SDS011;25567;48.276;14.242;2023-03-21T10:40:43;17.33;;;8.05;;
39896;SDS011;25567;48.276;14.242;2023-03-21T10:43:19;14.02;;;7.20;;
39896;SDS011;25567;48.276;14.242;2023-03-21T10:46:04;13.77;;;7.05;;
39896;SDS011;25567;48.276;14.242;2023-03-21T10:48:35;13.88;;;6.88;;
39896;SDS011;25567;48.276;14.242;2023-03-21T10:51:05;13.68;;;6.70;;
39896;SDS011;25567;48.276;14.242;2023-03-21T10:53:36;9.52;;;5.78;;
39896;SDS011;25567;48.276;14.242;2023-03-21T10:56:07;16.33;;;6.00;;
39896;SDS011;25567;48.276;14.242;2023-03-21T10:58:38;10.82;;;5.85;;
39896;SDS011;25567;48.276;14.242;2023-03-21T11:01:11;13.00;;;5.45;;
39896;SDS011;25567;48.276;14.242;2023-03-21T11:03:42;11.57;;;5.65;;
39896;SDS011;25567;48.276;14.242;2023-03-21T11:06:14;12.95;;;6.20;;
39896;SDS011;25567;48.276;14.242;2023-03-21T11:08:50;11.13;;;5.50;;
39896;SDS011;25567;48.276;14.242;2023-03-21T11:11:26;12.63;;;5.38;;
39896;SDS011;25567;48.276;14.242;2023-03-21T11:13:59;9.50;;;5.40;;
39896;SDS011;25567;48.276;14.242;2023-03-21T11:16:37;9.10;;;5.05;;
39896;SDS011;25567;48.276;14.242;2023-03-21T11:19:15;12.73;;;5.72;;
39896;SDS011;25567;48.276;14.242;2023-03-21T11:21:43;9.25;;;5.45;;
39896;SDS011;25567;48.276;14.242;2023-03-21T11:24:11;10.43;;;4.60;;
39896;SDS011;25567;48.276;14.242;2023-03-21T11:26:41;9.70;;;5.57;;
39896;SDS011;25567;48.276;14.242;2023-03-21T11:31:52;9.55;;;4.05;;
39896;SDS011;25567;48.276;14.242;2023-03-21T11:34:25;8.50;;;4.80;;
39896;SDS011;25567;48.276;14.242;2023-03-21T11:36:58;8.40;;;4.43;;
39896;SDS011;25567;48.276;14.242;2023-03-21T11:41:57;10.02;;;4.38;;
39896;SDS011;25567;48.276;14.242;2023-03-21T11:44:26;9.50;;;4.45;;
39896;SDS011;25567;48.276;14.242;2023-03-21T11:46:54;9.15;;;4.70;;
39896;SDS011;25567;48.276;14.242;2023-03-21T11:49:21;8.10;;;4.07;;
39896;SDS011;25567;48.276;14.242;2023-03-21T11:56:51;8.05;;;4.53;;
39896;SDS011;25567;48.276;14.242;2023-03-21T12:04:19;7.50;;;4.45;;
39896;SDS011;25567;48.276;14.242;2023-03-21T12:06:59;10.52;;;4.82;;
39896;SDS011;25567;48.276;14.242;2023-03-21T12:09:36;8.20;;;4.38;;
39896;SDS011;25567;48.276;14.242;2023-03-21T12:12:24;7.15;;;4.50;;
39896;SDS011;25567;48.276;14.242;2023-03-21T12:18:17;9.20;;;4.68;;
39896;SDS011;25567;48.276;14.242;2023-03-21T12:21:05;9.93;;;5.15;;
39896;SDS011;25567;48.276;14.242;2023-03-21T12:34:16;5.90;;;2.42;;
39896;SDS011;25567;48.276;14.242;2023-03-21T12:39:43;7.60;;;3.40;;
39896;SDS011;25567;48.276;14.242;2023-03-21T12:45:11;8.32;;;3.60;;
39896;SDS011;25567;48.276;14.242;2023-03-21T12:47:45;11.13;;;4.43;;
39896;SDS011;25567;48.276;14.242;2023-03-21T12:50:17;5.70;;;3.70;;
39896;SDS011;25567;48.276;14.242;2023-03-21T12:52:51;6.03;;;3.97;;
39896;SDS011;25567;48.276;14.242;2023-03-21T12:55:23;9.43;;;4.18;;
39896;SDS011;25567;48.276;14.242;2023-03-21T12:58:00;8.65;;;4.38;;
39896;SDS011;25567;48.276;14.242;2023-03-21T13:03:10;8.25;;;3.70;;
39896;SDS011;25567;48.276;14.242;2023-03-21T13:05:50;4.80;;;3.20;;
39896;SDS011;25567;48.276;14.242;2023-03-21T13:08:25;6.60;;;3.47;;
39896;SDS011;25567;48.276;14.242;2023-03-21T13:11:10;7.70;;;4.10;;
39896;SDS011;25567;48.276;14.242;2023-03-21T13:13:46;5.85;;;3.95;;
39896;SDS011;25567;48.276;14.242;2023-03-21T13:16:31;8.00;;;4.38;;
39896;SDS011;25567;48.276;14.242;2023-03-21T13:19:12;9.05;;;4.30;;
39896;SDS011;25567;48.276;14.242;2023-03-21T13:21:49;8.63;;;4.50;;
39896;SDS011;25567;48.276;14.242;2023-03-21T13:27:25;6.55;;;4.22;;
39896;SDS011;25567;48.276;14.242;2023-03-21T13:35:17;6.95;;;3.55;;
39896;SDS011;25567;48.276;14.242;2023-03-21T13:37:55;8.45;;;3.72;;
39896;SDS011;25567;48.276;14.242;2023-03-21T13:40:25;6.97;;;4.28;;
39896;SDS011;25567;48.276;14.242;2023-03-21T13:42:59;5.88;;;3.28;;
39896;SDS011;25567;48.276;14.242;2023-03-21T13:45:31;8.00;;;3.95;;
39896;SDS011;25567;48.276;14.242;2023-03-21T13:48:03;7.65;;;4.03;;
39896;SDS011;25567;48.276;14.242;2023-03-21T13:50:34;7.07;;;3.70;;
39896;SDS011;25567;48.276;14.242;2023-03-21T13:53:19;6.20;;;3.20;;
39896;SDS011;25567;48.276;14.242;2023-03-21T13:55:57;11.63;;;4.40;;
39896;SDS011;25567;48.276;14.242;2023-03-21T13:58:38;8.15;;;3.60;;
39896;SDS011;25567;48.276;14.242;2023-03-21T14:01:23;30.45;;;4.53;;
39896;SDS011;25567;48.276;14.242;2023-03-21T14:04:15;22.80;;;4.40;;
39896;SDS011;25567;48.276;14.242;2023-03-21T14:06:43;75.68;;;5.53;;
39896;SDS011;25567;48.276;14.242;2023-03-21T14:09:21;43.28;;;4.20;;
39896;SDS011;25567;48.276;14.242;2023-03-21T14:11:50;6.32;;;2.97;;
39896;SDS011;25567;48.276;14.242;2023-03-21T14:14:23;8.55;;;3.75;;
39896;SDS011;25567;48.276;14.242;2023-03-21T14:16:55;7.57;;;3.50;;
39896;SDS011;25567;48.276;14.242;2023-03-21T14:19:27;9.35;;;3.80;;
39896;SDS011;25567;48.276;14.242;2023-03-21T14:21:56;8.88;;;3.17;;
39896;SDS011;25567;48.276;14.242;2023-03-21T14:24:23;7.60;;;3.88;;
39896;SDS011;25567;48.276;14.242;2023-03-21T14:26:51;11.57;;;4.07;;
39896;SDS011;25567;48.276;14.242;2023-03-21T14:31:52;5.75;;;3.65;;
39896;SDS011;25567;48.276;14.242;2023-03-21T14:34:23;7.03;;;4.22;;
39896;SDS011;25567;48.276;14.242;2023-03-21T14:36:52;16.20;;;4.60;;
39896;SDS011;25567;48.276;14.242;2023-03-21T14:39:28;5.15;;;3.20;;
39896;SDS011;25567;48.276;14.242;2023-03-21T14:42:02;6.45;;;3.22;;
39896;SDS011;25567;48.276;14.242;2023-03-21T14:44:33;10.77;;;4.20;;
39896;SDS011;25567;48.276;14.242;2023-03-21T14:47:23;6.95;;;3.95;;
39896;SDS011;25567;48.276;14.242;2023-03-21T14:49:53;8.05;;;3.80;;
39896;SDS011;25567;48.276;14.242;2023-03-21T14:54:50;8.48;;;3.92;;
39896;SDS011;25567;48.276;14.242;2023-03-21T14:57:20;10.40;;;3.47;;
39896;SDS011;25567;48.276;14.242;2023-03-21T14:59:52;5.03;;;2.55;;
39896;SDS011;25567;48.276;14.242;2023-03-21T15:02:24;8.48;;;3.80;;
39896;SDS011;25567;48.276;14.242;2023-03-21T15:04:55;10.13;;;4.47;;
39896;SDS011;25567;48.276;14.242;2023-03-21T15:09:55;4.80;;;3.38;;
39896;SDS011;25567;48.276;14.242;2023-03-21T15:12:23;11.35;;;5.07;;
39896;SDS011;25567;48.276;14.242;2023-03-21T15:14:50;12.07;;;4.18;;
39896;SDS011;25567;48.276;14.242;2023-03-21T15:17:17;5.72;;;4.00;;
39896;SDS011;25567;48.276;14.242;2023-03-21T15:19:45;8.85;;;4.68;;
39896;SDS011;25567;48.276;14.242;2023-03-21T15:22:14;6.63;;;4.28;;
39896;SDS011;25567;48.276;14.242;2023-03-21T15:24:45;9.63;;;4.20;;
39896;SDS011;25567;48.276;14.242;2023-03-21T15:27:18;5.50;;;3.67;;
39896;SDS011;25567;48.276;14.242;2023-03-21T15:29:49;6.05;;;3.40;;
39896;SDS011;25567;48.276;14.242;2023-03-21T15:32:20;8.90;;;3.75;;
39896;SDS011;25567;48.276;14.242;2023-03-21T15:34:51;5.22;;;3.35;;
39896;SDS011;25567;48.276;14.242;2023-03-21T15:37:21;6.05;;;3.13;;
39896;SDS011;25567;48.276;14.242;2023-03-21T15:39:51;7.10;;;3.65;;
39896;SDS011;25567;48.276;14.242;2023-03-21T15:42:23;7.60;;;3.50;;
39896;SDS011;25567;48.276;14.242;2023-03-21T15:44:54;6.72;;;3.25;;
39896;SDS011;25567;48.276;14.242;2023-03-21T15:48:25;6.95;;;3.42;;
39896;SDS011;25567;48.276;14.242;2023-03-21T15:50:27;5.45;;;3.28;;
39896;SDS011;25567;48.276;14.242;2023-03-21T15:52:54;6.38;;;3.17;;
39896;SDS011;25567;48.276;14.242;2023-03-21T15:55:27;7.07;;;3.22;;
39896;SDS011;25567;48.276;14.242;2023-03-21T15:58:03;8.13;;;3.33;;
39896;SDS011;25567;48.276;14.242;2023-03-21T16:00:38;10.30;;;3.75;;
39896;SDS011;25567;48.276;14.242;2023-03-21T16:03:11;9.75;;;3.25;;
39896;SDS011;25567;48.276;14.242;2023-03-21T16:08:32;7.13;;;4.03;;
39896;SDS011;25567;48.276;14.242;2023-03-21T16:13:43;12.57;;;2.97;;
39896;SDS011;25567;48.276;14.242;2023-03-21T16:18:54;6.28;;;3.15;;
39896;SDS011;25567;48.276;14.242;2023-03-21T16:21:23;7.50;;;3.30;;
39896;SDS011;25567;48.276;14.242;2023-03-21T16:23:51;4.80;;;2.90;;
39896;SDS011;25567;48.276;14.242;2023-03-21T16:26:20;8.50;;;3.05;;
39896;SDS011;25567;48.276;14.242;2023-03-21T16:28:49;6.35;;;2.70;;